sensor_id;sensor_type;location;lat;lon;timestamp;P1;durP1;ratioP1;P2;durP2;ratioP2
20122;SDS011;10222;50.848;4.336;2023-04-29T00:00:12;31.73;;;14.17;;
20122;SDS011;10222;50.848;4.336;2023-04-29T00:02:39;29.83;;;12.70;;
20122;SDS011;10222;50.848;4.336;2023-04-29T00:05:06;27.07;;;12.97;;
20122;SDS011;10222;50.848;4.336;2023-04-29T00:07:34;34.00;;;14.23;;
20122;SDS011;10222;50.848;4.336;2023-04-29T00:12:32;33.90;;;14.97;;
20122;SDS011;10222;50.848;4.336;2023-04-29T00:14:59;28.77;;;13.13;;
20122;SDS011;10222;50.848;4.336;2023-04-29T00:17:28;30.13;;;12.90;;
20122;SDS011;10222;50.848;4.336;2023-04-29T00:19:57;25.83;;;12.43;;
20122;SDS011;10222;50.848;4.336;2023-04-29T00:22:24;28.53;;;13.33;;
20122;SDS011;10222;50.848;4.336;2023-04-29T00:24:50;26.30;;;11.43;;
20122;SDS011;10222;50.848;4.336;2023-04-29T00:27:18;28.53;;;12.93;;
20122;SDS011;10222;50.848;4.336;2023-04-29T00:29:46;31.23;;;13.27;;
20122;SDS011;10222;50.848;4.336;2023-04-29T00:32:13;27.43;;;12.60;;
20122;SDS011;10222;50.848;4.336;2023-04-29T00:34:41;32.77;;;13.00;;
20122;SDS011;10222;50.848;4.336;2023-04-29T00:37:13;26.40;;;11.50;;
20122;SDS011;10222;50.848;4.336;2023-04-29T00:39:39;27.90;;;11.33;;
20122;SDS011;10222;50.848;4.336;2023-04-29T00:42:05;23.70;;;11.77;;
20122;SDS011;10222;50.848;4.336;2023-04-29T00:44:32;26.03;;;11.97;;
20122;SDS011;10222;50.848;4.336;2023-04-29T00:47:01;23.23;;;11.93;;
20122;SDS011;10222;50.848;4.336;2023-04-29T00:49:28;23.67;;;11.00;;
20122;SDS011;10222;50.848;4.336;2023-04-29T00:51:55;22.90;;;11.93;;
20122;SDS011;10222;50.848;4.336;2023-04-29T00:54:24;24.10;;;11.37;;
20122;SDS011;10222;50.848;4.336;2023-04-29T00:56:50;28.20;;;11.13;;
20122;SDS011;10222;50.848;4.336;2023-04-29T01:01:46;23.17;;;11.33;;
20122;SDS011;10222;50.848;4.336;2023-04-29T01:06:52;24.13;;;12.40;;
20122;SDS011;10222;50.848;4.336;2023-04-29T01:11:58;22.93;;;10.63;;
20122;SDS011;10222;50.848;4.336;2023-04-29T01:14:31;23.30;;;10.77;;
20122;SDS011;10222;50.848;4.336;2023-04-29T01:17:10;22.77;;;10.80;;
20122;SDS011;10222;50.848;4.336;2023-04-29T01:19:49;24.30;;;11.57;;
20122;SDS011;10222;50.848;4.336;2023-04-29T01:22:18;27.27;;;12.10;;
20122;SDS011;10222;50.848;4.336;2023-04-29T01:24:48;33.03;;;11.97;;
20122;SDS011;10222;50.848;4.336;2023-04-29T01:37:55;30.57;;;11.87;;
20122;SDS011;10222;50.848;4.336;2023-04-29T01:40:33;23.37;;;11.30;;
20122;SDS011;10222;50.848;4.336;2023-04-29T01:43:03;25.67;;;12.23;;
20122;SDS011;10222;50.848;4.336;2023-04-29T01:45:33;28.27;;;12.93;;
20122;SDS011;10222;50.848;4.336;2023-04-29T01:50:28;26.63;;;13.33;;
20122;SDS011;10222;50.848;4.336;2023-04-29T01:52:56;34.47;;;14.43;;
20122;SDS011;10222;50.848;4.336;2023-04-29T01:55:26;39.73;;;13.20;;
20122;SDS011;10222;50.848;4.336;2023-04-29T01:57:52;35.33;;;14.70;;
20122;SDS011;10222;50.848;4.336;2023-04-29T02:00:19;29.43;;;13.77;;
20122;SDS011;10222;50.848;4.336;2023-04-29T02:05:16;32.27;;;13.63;;
20122;SDS011;10222;50.848;4.336;2023-04-29T02:07:43;29.43;;;13.53;;
20122;SDS011;10222;50.848;4.336;2023-04-29T02:10:09;30.23;;;14.00;;
20122;SDS011;10222;50.848;4.336;2023-04-29T02:12:36;29.40;;;12.97;;
20122;SDS011;10222;50.848;4.336;2023-04-29T02:17:33;27.23;;;13.83;;
20122;SDS011;10222;50.848;4.336;2023-04-29T02:20:00;29.77;;;12.93;;
20122;SDS011;10222;50.848;4.336;2023-04-29T02:22:29;31.33;;;12.67;;
20122;SDS011;10222;50.848;4.336;2023-04-29T02:24:56;34.73;;;14.53;;
20122;SDS011;10222;50.848;4.336;2023-04-29T02:27:25;26.67;;;12.83;;
20122;SDS011;10222;50.848;4.336;2023-04-29T02:29:53;30.57;;;14.03;;
20122;SDS011;10222;50.848;4.336;2023-04-29T02:32:21;23.53;;;11.77;;
20122;SDS011;10222;50.848;4.336;2023-04-29T02:34:47;31.40;;;13.67;;
20122;SDS011;10222;50.848;4.336;2023-04-29T02:37:13;23.13;;;11.63;;
20122;SDS011;10222;50.848;4.336;2023-04-29T02:39:40;25.00;;;12.90;;
20122;SDS011;10222;50.848;4.336;2023-04-29T02:42:08;22.13;;;11.80;;
20122;SDS011;10222;50.848;4.336;2023-04-29T02:44:34;24.90;;;10.30;;
20122;SDS011;10222;50.848;4.336;2023-04-29T02:47:03;22.13;;;10.43;;
20122;SDS011;10222;50.848;4.336;2023-04-29T02:49:30;17.73;;;9.43;;
20122;SDS011;10222;50.848;4.336;2023-04-29T02:51:59;19.03;;;10.40;;
20122;SDS011;10222;50.848;4.336;2023-04-29T02:54:25;19.57;;;9.77;;
20122;SDS011;10222;50.848;4.336;2023-04-29T02:56:52;18.40;;;8.90;;
20122;SDS011;10222;50.848;4.336;2023-04-29T02:59:18;16.17;;;8.47;;
20122;SDS011;10222;50.848;4.336;2023-04-29T03:01:47;16.03;;;8.53;;
20122;SDS011;10222;50.848;4.336;2023-04-29T03:04:13;16.43;;;8.57;;
20122;SDS011;10222;50.848;4.336;2023-04-29T03:06:39;15.43;;;7.73;;
20122;SDS011;10222;50.848;4.336;2023-04-29T03:11:35;13.93;;;7.50;;
20122;SDS011;10222;50.848;4.336;2023-04-29T03:14:02;16.90;;;8.67;;
20122;SDS011;10222;50.848;4.336;2023-04-29T03:16:30;16.10;;;8.47;;
20122;SDS011;10222;50.848;4.336;2023-04-29T03:18:56;18.60;;;8.63;;
20122;SDS011;10222;50.848;4.336;2023-04-29T03:21:23;18.80;;;7.77;;
20122;SDS011;10222;50.848;4.336;2023-04-29T03:23:53;16.23;;;8.50;;
20122;SDS011;10222;50.848;4.336;2023-04-29T03:26:23;16.63;;;8.07;;
20122;SDS011;10222;50.848;4.336;2023-04-29T03:28:52;16.63;;;8.00;;
20122;SDS011;10222;50.848;4.336;2023-04-29T03:31:24;17.70;;;8.53;;
20122;SDS011;10222;50.848;4.336;2023-04-29T03:33:54;16.97;;;8.77;;
20122;SDS011;10222;50.848;4.336;2023-04-29T03:36:20;12.83;;;7.73;;
20122;SDS011;10222;50.848;4.336;2023-04-29T03:41:17;14.37;;;7.80;;
20122;SDS011;10222;50.848;4.336;2023-04-29T03:43:43;12.03;;;6.50;;
20122;SDS011;10222;50.848;4.336;2023-04-29T03:46:11;15.73;;;7.87;;
20122;SDS011;10222;50.848;4.336;2023-04-29T03:48:38;15.43;;;7.50;;
20122;SDS011;10222;50.848;4.336;2023-04-29T03:51:07;14.07;;;7.17;;
20122;SDS011;10222;50.848;4.336;2023-04-29T03:53:34;10.37;;;6.73;;
20122;SDS011;10222;50.848;4.336;2023-04-29T03:56:03;15.53;;;6.93;;
20122;SDS011;10222;50.848;4.336;2023-04-29T03:58:30;15.57;;;7.73;;
20122;SDS011;10222;50.848;4.336;2023-04-29T04:00:57;16.63;;;7.97;;
20122;SDS011;10222;50.848;4.336;2023-04-29T04:03:24;14.97;;;8.23;;
20122;SDS011;10222;50.848;4.336;2023-04-29T04:05:58;17.23;;;8.43;;
20122;SDS011;10222;50.848;4.336;2023-04-29T04:08:24;17.87;;;8.77;;
20122;SDS011;10222;50.848;4.336;2023-04-29T04:10:51;15.77;;;8.97;;
20122;SDS011;10222;50.848;4.336;2023-04-29T04:13:23;16.17;;;7.83;;
20122;SDS011;10222;50.848;4.336;2023-04-29T04:15:50;13.27;;;8.13;;
20122;SDS011;10222;50.848;4.336;2023-04-29T04:18:19;15.77;;;8.50;;
20122;SDS011;10222;50.848;4.336;2023-04-29T04:20:48;20.23;;;8.87;;
20122;SDS011;10222;50.848;4.336;2023-04-29T04:23:14;14.80;;;8.37;;
20122;SDS011;10222;50.848;4.336;2023-04-29T04:25:46;16.57;;;8.63;;
20122;SDS011;10222;50.848;4.336;2023-04-29T04:28:14;15.93;;;9.33;;
20122;SDS011;10222;50.848;4.336;2023-04-29T04:30:42;20.30;;;9.93;;
20122;SDS011;10222;50.848;4.336;2023-04-29T04:33:09;18.03;;;9.33;;
20122;SDS011;10222;50.848;4.336;2023-04-29T04:35:35;19.50;;;9.10;;
20122;SDS011;10222;50.848;4.336;2023-04-29T04:40:33;20.07;;;9.43;;
20122;SDS011;10222;50.848;4.336;2023-04-29T04:43:01;20.27;;;10.83;;
20122;SDS011;10222;50.848;4.336;2023-04-29T04:45:27;22.83;;;10.67;;
20122;SDS011;10222;50.848;4.336;2023-04-29T04:47:57;24.77;;;11.47;;
20122;SDS011;10222;50.848;4.336;2023-04-29T04:50:26;18.93;;;10.53;;
20122;SDS011;10222;50.848;4.336;2023-04-29T04:52:53;17.03;;;9.47;;
20122;SDS011;10222;50.848;4.336;2023-04-29T04:55:20;23.17;;;11.80;;
20122;SDS011;10222;50.848;4.336;2023-04-29T04:57:48;18.03;;;10.10;;
20122;SDS011;10222;50.848;4.336;2023-04-29T05:00:15;21.53;;;11.10;;
20122;SDS011;10222;50.848;4.336;2023-04-29T05:02:43;17.73;;;9.27;;
20122;SDS011;10222;50.848;4.336;2023-04-29T05:05:10;16.90;;;8.57;;
20122;SDS011;10222;50.848;4.336;2023-04-29T05:07:37;16.57;;;9.37;;
20122;SDS011;10222;50.848;4.336;2023-04-29T05:10:04;18.17;;;9.10;;
20122;SDS011;10222;50.848;4.336;2023-04-29T05:12:34;17.03;;;8.77;;
20122;SDS011;10222;50.848;4.336;2023-04-29T05:15:01;15.33;;;8.27;;
20122;SDS011;10222;50.848;4.336;2023-04-29T05:17:29;17.17;;;9.70;;
20122;SDS011;10222;50.848;4.336;2023-04-29T05:19:56;19.33;;;9.47;;
20122;SDS011;10222;50.848;4.336;2023-04-29T05:22:22;17.90;;;9.73;;
20122;SDS011;10222;50.848;4.336;2023-04-29T05:24:49;19.50;;;9.50;;
20122;SDS011;10222;50.848;4.336;2023-04-29T05:27:19;18.67;;;9.53;;
20122;SDS011;10222;50.848;4.336;2023-04-29T05:29:48;18.83;;;9.90;;
20122;SDS011;10222;50.848;4.336;2023-04-29T05:32:15;18.80;;;9.23;;
20122;SDS011;10222;50.848;4.336;2023-04-29T05:34:41;20.37;;;9.63;;
20122;SDS011;10222;50.848;4.336;2023-04-29T05:37:09;15.73;;;8.43;;
20122;SDS011;10222;50.848;4.336;2023-04-29T05:39:36;14.23;;;8.20;;
20122;SDS011;10222;50.848;4.336;2023-04-29T05:42:03;15.93;;;8.60;;
20122;SDS011;10222;50.848;4.336;2023-04-29T05:44:31;16.20;;;8.13;;
20122;SDS011;10222;50.848;4.336;2023-04-29T05:46:59;13.20;;;7.83;;
20122;SDS011;10222;50.848;4.336;2023-04-29T05:49:25;11.20;;;7.40;;
20122;SDS011;10222;50.848;4.336;2023-04-29T05:51:52;19.27;;;9.43;;
20122;SDS011;10222;50.848;4.336;2023-04-29T05:56:47;17.77;;;8.40;;
20122;SDS011;10222;50.848;4.336;2023-04-29T05:59:14;16.97;;;9.53;;
20122;SDS011;10222;50.848;4.336;2023-04-29T06:01:41;15.20;;;9.10;;
20122;SDS011;10222;50.848;4.336;2023-04-29T06:04:08;17.37;;;8.27;;
20122;SDS011;10222;50.848;4.336;2023-04-29T06:06:36;13.27;;;8.00;;
20122;SDS011;10222;50.848;4.336;2023-04-29T06:09:02;15.20;;;7.77;;
20122;SDS011;10222;50.848;4.336;2023-04-29T06:11:29;17.47;;;8.40;;
20122;SDS011;10222;50.848;4.336;2023-04-29T06:13:57;15.23;;;8.40;;
20122;SDS011;10222;50.848;4.336;2023-04-29T06:18:52;13.77;;;7.20;;
20122;SDS011;10222;50.848;4.336;2023-04-29T06:21:19;15.30;;;7.37;;
20122;SDS011;10222;50.848;4.336;2023-04-29T06:26:14;15.67;;;7.50;;
20122;SDS011;10222;50.848;4.336;2023-04-29T06:28:40;11.10;;;6.77;;
20122;SDS011;10222;50.848;4.336;2023-04-29T06:31:07;12.13;;;6.37;;
20122;SDS011;10222;50.848;4.336;2023-04-29T06:33:33;14.43;;;6.87;;
20122;SDS011;10222;50.848;4.336;2023-04-29T06:35:59;11.50;;;6.97;;
20122;SDS011;10222;50.848;4.336;2023-04-29T06:38:26;16.43;;;7.47;;
20122;SDS011;10222;50.848;4.336;2023-04-29T06:43:28;18.60;;;7.40;;
20122;SDS011;10222;50.848;4.336;2023-04-29T06:45:55;17.90;;;8.23;;
20122;SDS011;10222;50.848;4.336;2023-04-29T06:48:22;20.27;;;8.63;;
20122;SDS011;10222;50.848;4.336;2023-04-29T06:50:55;18.97;;;8.67;;
20122;SDS011;10222;50.848;4.336;2023-04-29T06:53:27;13.43;;;8.20;;
20122;SDS011;10222;50.848;4.336;2023-04-29T06:55:54;21.87;;;8.50;;
20122;SDS011;10222;50.848;4.336;2023-04-29T06:58:20;16.07;;;8.60;;
20122;SDS011;10222;50.848;4.336;2023-04-29T07:00:48;15.23;;;8.63;;
20122;SDS011;10222;50.848;4.336;2023-04-29T07:03:15;16.57;;;9.60;;
20122;SDS011;10222;50.848;4.336;2023-04-29T07:05:43;18.87;;;9.23;;
20122;SDS011;10222;50.848;4.336;2023-04-29T07:08:11;16.33;;;10.13;;
20122;SDS011;10222;50.848;4.336;2023-04-29T07:10:39;17.83;;;8.67;;
20122;SDS011;10222;50.848;4.336;2023-04-29T07:13:07;15.50;;;8.43;;
20122;SDS011;10222;50.848;4.336;2023-04-29T07:15:34;17.43;;;9.60;;
20122;SDS011;10222;50.848;4.336;2023-04-29T07:18:01;17.30;;;10.23;;
20122;SDS011;10222;50.848;4.336;2023-04-29T07:20:29;20.43;;;9.63;;
20122;SDS011;10222;50.848;4.336;2023-04-29T07:22:56;25.17;;;11.43;;
20122;SDS011;10222;50.848;4.336;2023-04-29T07:25:23;19.23;;;10.33;;
20122;SDS011;10222;50.848;4.336;2023-04-29T07:27:51;19.47;;;9.63;;
20122;SDS011;10222;50.848;4.336;2023-04-29T07:30:19;19.33;;;9.87;;
20122;SDS011;10222;50.848;4.336;2023-04-29T07:32:45;20.17;;;11.20;;
20122;SDS011;10222;50.848;4.336;2023-04-29T07:35:12;17.83;;;9.97;;
20122;SDS011;10222;50.848;4.336;2023-04-29T07:37:38;20.97;;;10.67;;
20122;SDS011;10222;50.848;4.336;2023-04-29T07:40:06;17.53;;;10.93;;
20122;SDS011;10222;50.848;4.336;2023-04-29T07:42:35;19.47;;;10.97;;
20122;SDS011;10222;50.848;4.336;2023-04-29T07:45:02;20.70;;;10.80;;
20122;SDS011;10222;50.848;4.336;2023-04-29T07:47:30;17.63;;;10.63;;
20122;SDS011;10222;50.848;4.336;2023-04-29T07:49:57;28.13;;;12.10;;
20122;SDS011;10222;50.848;4.336;2023-04-29T07:52:26;26.47;;;12.50;;
20122;SDS011;10222;50.848;4.336;2023-04-29T07:54:58;24.27;;;12.77;;
20122;SDS011;10222;50.848;4.336;2023-04-29T07:57:24;21.30;;;12.00;;
20122;SDS011;10222;50.848;4.336;2023-04-29T08:02:20;22.93;;;12.63;;
20122;SDS011;10222;50.848;4.336;2023-04-29T08:04:52;21.17;;;11.67;;
20122;SDS011;10222;50.848;4.336;2023-04-29T08:07:21;24.23;;;12.43;;
20122;SDS011;10222;50.848;4.336;2023-04-29T08:09:47;24.73;;;12.17;;
20122;SDS011;10222;50.848;4.336;2023-04-29T08:12:15;18.00;;;10.53;;
20122;SDS011;10222;50.848;4.336;2023-04-29T08:14:42;20.93;;;11.40;;
20122;SDS011;10222;50.848;4.336;2023-04-29T08:17:11;21.07;;;12.03;;
20122;SDS011;10222;50.848;4.336;2023-04-29T08:22:09;21.47;;;11.87;;
20122;SDS011;10222;50.848;4.336;2023-04-29T08:24:37;23.87;;;12.00;;
20122;SDS011;10222;50.848;4.336;2023-04-29T08:27:03;20.53;;;10.70;;
20122;SDS011;10222;50.848;4.336;2023-04-29T08:29:34;23.77;;;11.30;;
20122;SDS011;10222;50.848;4.336;2023-04-29T08:32:01;19.17;;;11.23;;
20122;SDS011;10222;50.848;4.336;2023-04-29T08:34:29;20.90;;;11.20;;
20122;SDS011;10222;50.848;4.336;2023-04-29T08:37:00;21.00;;;11.00;;
20122;SDS011;10222;50.848;4.336;2023-04-29T08:39:28;19.00;;;10.90;;
20122;SDS011;10222;50.848;4.336;2023-04-29T08:41:58;17.90;;;10.07;;
20122;SDS011;10222;50.848;4.336;2023-04-29T08:44:27;20.30;;;11.10;;
20122;SDS011;10222;50.848;4.336;2023-04-29T08:46:55;19.97;;;10.37;;
20122;SDS011;10222;50.848;4.336;2023-04-29T08:49:22;20.60;;;10.87;;
20122;SDS011;10222;50.848;4.336;2023-04-29T08:51:49;19.40;;;10.07;;
20122;SDS011;10222;50.848;4.336;2023-04-29T08:54:16;21.10;;;10.33;;
20122;SDS011;10222;50.848;4.336;2023-04-29T08:56:44;15.10;;;8.77;;
20122;SDS011;10222;50.848;4.336;2023-04-29T08:59:16;17.80;;;9.63;;
20122;SDS011;10222;50.848;4.336;2023-04-29T09:01:45;19.73;;;9.60;;
20122;SDS011;10222;50.848;4.336;2023-04-29T09:09:40;23.17;;;12.07;;
20122;SDS011;10222;50.848;4.336;2023-04-29T09:12:19;18.77;;;10.53;;
20122;SDS011;10222;50.848;4.336;2023-04-29T09:14:48;19.67;;;10.00;;
20122;SDS011;10222;50.848;4.336;2023-04-29T09:17:17;19.00;;;9.73;;
20122;SDS011;10222;50.848;4.336;2023-04-29T09:19:44;15.27;;;8.87;;
20122;SDS011;10222;50.848;4.336;2023-04-29T09:24:39;18.17;;;9.47;;
20122;SDS011;10222;50.848;4.336;2023-04-29T09:27:05;24.43;;;10.77;;
20122;SDS011;10222;50.848;4.336;2023-04-29T09:29:34;18.37;;;9.87;;
20122;SDS011;10222;50.848;4.336;2023-04-29T09:32:17;19.57;;;9.43;;
20122;SDS011;10222;50.848;4.336;2023-04-29T09:34:44;20.67;;;10.30;;
20122;SDS011;10222;50.848;4.336;2023-04-29T09:37:23;17.13;;;10.03;;
20122;SDS011;10222;50.848;4.336;2023-04-29T09:39:56;15.83;;;9.43;;
20122;SDS011;10222;50.848;4.336;2023-04-29T09:42:24;19.10;;;9.70;;
20122;SDS011;10222;50.848;4.336;2023-04-29T09:44:51;19.57;;;10.80;;
20122;SDS011;10222;50.848;4.336;2023-04-29T09:47:19;20.83;;;10.53;;
20122;SDS011;10222;50.848;4.336;2023-04-29T09:52:24;17.90;;;9.93;;
20122;SDS011;10222;50.848;4.336;2023-04-29T09:55:07;16.70;;;9.67;;
20122;SDS011;10222;50.848;4.336;2023-04-29T09:57:40;20.00;;;10.60;;
20122;SDS011;10222;50.848;4.336;2023-04-29T10:00:08;18.60;;;10.27;;
20122;SDS011;10222;50.848;4.336;2023-04-29T10:02:34;17.33;;;10.10;;
20122;SDS011;10222;50.848;4.336;2023-04-29T10:05:03;18.73;;;10.00;;
20122;SDS011;10222;50.848;4.336;2023-04-29T10:07:36;19.00;;;10.23;;
20122;SDS011;10222;50.848;4.336;2023-04-29T10:10:04;21.73;;;10.90;;
20122;SDS011;10222;50.848;4.336;2023-04-29T10:12:33;17.07;;;10.20;;
20122;SDS011;10222;50.848;4.336;2023-04-29T10:17:42;15.90;;;9.93;;
20122;SDS011;10222;50.848;4.336;2023-04-29T10:20:10;17.43;;;9.10;;
20122;SDS011;10222;50.848;4.336;2023-04-29T10:22:44;16.47;;;10.57;;
20122;SDS011;10222;50.848;4.336;2023-04-29T10:25:16;16.33;;;9.37;;
20122;SDS011;10222;50.848;4.336;2023-04-29T10:27:45;17.87;;;10.00;;
20122;SDS011;10222;50.848;4.336;2023-04-29T10:30:14;16.20;;;8.20;;
20122;SDS011;10222;50.848;4.336;2023-04-29T10:32:48;15.33;;;9.57;;
20122;SDS011;10222;50.848;4.336;2023-04-29T10:35:15;16.00;;;9.43;;
20122;SDS011;10222;50.848;4.336;2023-04-29T10:37:47;13.40;;;8.73;;
20122;SDS011;10222;50.848;4.336;2023-04-29T10:40:22;15.57;;;8.27;;
20122;SDS011;10222;50.848;4.336;2023-04-29T10:42:50;15.83;;;8.57;;
20122;SDS011;10222;50.848;4.336;2023-04-29T10:45:31;14.93;;;7.67;;
20122;SDS011;10222;50.848;4.336;2023-04-29T10:55:34;12.50;;;8.13;;
20122;SDS011;10222;50.848;4.336;2023-04-29T10:58:03;12.33;;;7.60;;
20122;SDS011;10222;50.848;4.336;2023-04-29T11:00:33;11.33;;;6.30;;
20122;SDS011;10222;50.848;4.336;2023-04-29T11:03:01;12.80;;;7.20;;
20122;SDS011;10222;50.848;4.336;2023-04-29T11:05:30;11.77;;;7.20;;
20122;SDS011;10222;50.848;4.336;2023-04-29T11:10:53;13.10;;;6.27;;
20122;SDS011;10222;50.848;4.336;2023-04-29T11:13:29;13.37;;;7.63;;
20122;SDS011;10222;50.848;4.336;2023-04-29T11:18:28;11.90;;;7.10;;
20122;SDS011;10222;50.848;4.336;2023-04-29T11:23:35;11.67;;;7.73;;
20122;SDS011;10222;50.848;4.336;2023-04-29T11:26:02;12.40;;;7.27;;
20122;SDS011;10222;50.848;4.336;2023-04-29T11:28:31;11.07;;;6.10;;
20122;SDS011;10222;50.848;4.336;2023-04-29T11:30:58;11.20;;;6.63;;
20122;SDS011;10222;50.848;4.336;2023-04-29T11:33:25;11.50;;;6.93;;
20122;SDS011;10222;50.848;4.336;2023-04-29T11:35:51;11.40;;;6.87;;
20122;SDS011;10222;50.848;4.336;2023-04-29T11:40:49;10.90;;;6.67;;
20122;SDS011;10222;50.848;4.336;2023-04-29T11:45:45;13.10;;;7.47;;
20122;SDS011;10222;50.848;4.336;2023-04-29T11:48:21;15.10;;;7.90;;
20122;SDS011;10222;50.848;4.336;2023-04-29T11:50:56;15.67;;;8.47;;
20122;SDS011;10222;50.848;4.336;2023-04-29T11:53:28;16.10;;;8.33;;
20122;SDS011;10222;50.848;4.336;2023-04-29T11:55:55;12.87;;;8.00;;
20122;SDS011;10222;50.848;4.336;2023-04-29T11:58:22;12.87;;;7.70;;
20122;SDS011;10222;50.848;4.336;2023-04-29T12:00:49;11.83;;;8.07;;
20122;SDS011;10222;50.848;4.336;2023-04-29T12:03:21;12.37;;;7.67;;
20122;SDS011;10222;50.848;4.336;2023-04-29T12:05:56;13.97;;;8.07;;
20122;SDS011;10222;50.848;4.336;2023-04-29T12:08:28;13.50;;;8.43;;
20122;SDS011;10222;50.848;4.336;2023-04-29T12:10:55;15.63;;;8.40;;
20122;SDS011;10222;50.848;4.336;2023-04-29T12:13:23;12.10;;;7.40;;
20122;SDS011;10222;50.848;4.336;2023-04-29T12:15:53;11.27;;;7.27;;
20122;SDS011;10222;50.848;4.336;2023-04-29T12:18:21;12.40;;;7.07;;
20122;SDS011;10222;50.848;4.336;2023-04-29T12:20:48;10.07;;;6.57;;
20122;SDS011;10222;50.848;4.336;2023-04-29T12:23:18;10.83;;;6.80;;
20122;SDS011;10222;50.848;4.336;2023-04-29T12:25:49;8.63;;;5.90;;
20122;SDS011;10222;50.848;4.336;2023-04-29T12:28:16;11.67;;;5.93;;
20122;SDS011;10222;50.848;4.336;2023-04-29T12:30:49;8.93;;;5.67;;
20122;SDS011;10222;50.848;4.336;2023-04-29T12:33:19;12.07;;;6.13;;
20122;SDS011;10222;50.848;4.336;2023-04-29T12:35:46;10.67;;;6.57;;
20122;SDS011;10222;50.848;4.336;2023-04-29T12:38:14;13.40;;;6.30;;
20122;SDS011;10222;50.848;4.336;2023-04-29T12:40:42;8.97;;;5.23;;
20122;SDS011;10222;50.848;4.336;2023-04-29T12:45:41;8.20;;;4.70;;
20122;SDS011;10222;50.848;4.336;2023-04-29T12:48:07;10.07;;;5.23;;
20122;SDS011;10222;50.848;4.336;2023-04-29T12:50:37;9.13;;;4.83;;
20122;SDS011;10222;50.848;4.336;2023-04-29T12:53:03;9.73;;;6.00;;
20122;SDS011;10222;50.848;4.336;2023-04-29T12:55:31;6.47;;;4.73;;
20122;SDS011;10222;50.848;4.336;2023-04-29T13:00:28;6.47;;;4.67;;
20122;SDS011;10222;50.848;4.336;2023-04-29T13:02:55;8.40;;;5.63;;
20122;SDS011;10222;50.848;4.336;2023-04-29T13:05:21;7.07;;;4.87;;
20122;SDS011;10222;50.848;4.336;2023-04-29T13:07:49;8.83;;;5.00;;
20122;SDS011;10222;50.848;4.336;2023-04-29T13:10:15;8.77;;;5.43;;
20122;SDS011;10222;50.848;4.336;2023-04-29T13:12:43;8.90;;;5.47;;
20122;SDS011;10222;50.848;4.336;2023-04-29T13:15:11;9.10;;;6.10;;
20122;SDS011;10222;50.848;4.336;2023-04-29T13:17:39;11.37;;;5.73;;
20122;SDS011;10222;50.848;4.336;2023-04-29T13:20:12;8.37;;;4.83;;
20122;SDS011;10222;50.848;4.336;2023-04-29T13:22:41;8.60;;;4.97;;
20122;SDS011;10222;50.848;4.336;2023-04-29T13:25:11;10.23;;;5.63;;
20122;SDS011;10222;50.848;4.336;2023-04-29T13:27:39;13.00;;;6.17;;
20122;SDS011;10222;50.848;4.336;2023-04-29T13:30:08;9.57;;;5.20;;
20122;SDS011;10222;50.848;4.336;2023-04-29T13:32:35;11.17;;;7.37;;
20122;SDS011;10222;50.848;4.336;2023-04-29T13:35:05;11.90;;;6.33;;
20122;SDS011;10222;50.848;4.336;2023-04-29T13:37:33;11.77;;;7.07;;
20122;SDS011;10222;50.848;4.336;2023-04-29T13:39:59;10.87;;;6.53;;
20122;SDS011;10222;50.848;4.336;2023-04-29T13:42:26;11.73;;;7.00;;
20122;SDS011;10222;50.848;4.336;2023-04-29T13:44:53;7.73;;;5.57;;
20122;SDS011;10222;50.848;4.336;2023-04-29T13:47:21;9.00;;;5.93;;
20122;SDS011;10222;50.848;4.336;2023-04-29T13:49:48;10.87;;;6.83;;
20122;SDS011;10222;50.848;4.336;2023-04-29T13:52:14;8.20;;;5.53;;
20122;SDS011;10222;50.848;4.336;2023-04-29T13:54:41;9.57;;;5.87;;
20122;SDS011;10222;50.848;4.336;2023-04-29T13:57:08;10.07;;;6.27;;
20122;SDS011;10222;50.848;4.336;2023-04-29T13:59:35;10.63;;;5.90;;
20122;SDS011;10222;50.848;4.336;2023-04-29T14:02:04;9.97;;;6.60;;
20122;SDS011;10222;50.848;4.336;2023-04-29T14:04:31;7.47;;;5.53;;
20122;SDS011;10222;50.848;4.336;2023-04-29T14:06:59;12.07;;;5.33;;
20122;SDS011;10222;50.848;4.336;2023-04-29T14:09:25;9.67;;;6.17;;
20122;SDS011;10222;50.848;4.336;2023-04-29T14:11:52;9.00;;;5.53;;
20122;SDS011;10222;50.848;4.336;2023-04-29T14:14:18;9.37;;;6.17;;
20122;SDS011;10222;50.848;4.336;2023-04-29T14:16:44;11.03;;;6.13;;
20122;SDS011;10222;50.848;4.336;2023-04-29T14:19:11;8.33;;;5.07;;
20122;SDS011;10222;50.848;4.336;2023-04-29T14:21:38;7.33;;;5.03;;
20122;SDS011;10222;50.848;4.336;2023-04-29T14:24:07;8.23;;;5.30;;
20122;SDS011;10222;50.848;4.336;2023-04-29T14:26:33;8.80;;;5.20;;
20122;SDS011;10222;50.848;4.336;2023-04-29T14:29:03;10.70;;;5.67;;
20122;SDS011;10222;50.848;4.336;2023-04-29T14:31:32;8.83;;;6.03;;
20122;SDS011;10222;50.848;4.336;2023-04-29T14:34:01;11.00;;;5.97;;
20122;SDS011;10222;50.848;4.336;2023-04-29T14:36:28;7.27;;;4.77;;
20122;SDS011;10222;50.848;4.336;2023-04-29T14:38:56;8.33;;;5.10;;
20122;SDS011;10222;50.848;4.336;2023-04-29T14:41:23;7.50;;;5.27;;
20122;SDS011;10222;50.848;4.336;2023-04-29T14:43:50;9.27;;;5.50;;
20122;SDS011;10222;50.848;4.336;2023-04-29T14:46:16;7.53;;;5.27;;
20122;SDS011;10222;50.848;4.336;2023-04-29T14:48:42;7.47;;;5.20;;
20122;SDS011;10222;50.848;4.336;2023-04-29T14:51:10;6.33;;;4.53;;
20122;SDS011;10222;50.848;4.336;2023-04-29T14:53:36;7.63;;;4.80;;
20122;SDS011;10222;50.848;4.336;2023-04-29T14:56:04;8.87;;;5.17;;
20122;SDS011;10222;50.848;4.336;2023-04-29T14:58:33;9.13;;;5.10;;
20122;SDS011;10222;50.848;4.336;2023-04-29T15:00:59;7.23;;;4.83;;
20122;SDS011;10222;50.848;4.336;2023-04-29T15:03:26;6.60;;;4.83;;
20122;SDS011;10222;50.848;4.336;2023-04-29T15:05:52;6.63;;;4.27;;
20122;SDS011;10222;50.848;4.336;2023-04-29T15:08:18;7.37;;;4.47;;
20122;SDS011;10222;50.848;4.336;2023-04-29T15:10:45;7.10;;;4.40;;
20122;SDS011;10222;50.848;4.336;2023-04-29T15:13:12;6.13;;;4.10;;
20122;SDS011;10222;50.848;4.336;2023-04-29T15:15:38;5.80;;;4.10;;
20122;SDS011;10222;50.848;4.336;2023-04-29T15:18:04;8.67;;;4.53;;
20122;SDS011;10222;50.848;4.336;2023-04-29T15:20:32;7.57;;;4.47;;
20122;SDS011;10222;50.848;4.336;2023-04-29T15:22:58;6.90;;;4.33;;
20122;SDS011;10222;50.848;4.336;2023-04-29T15:25:24;7.03;;;3.73;;
20122;SDS011;10222;50.848;4.336;2023-04-29T15:27:50;9.73;;;4.73;;
20122;SDS011;10222;50.848;4.336;2023-04-29T15:30:17;8.40;;;5.60;;
20122;SDS011;10222;50.848;4.336;2023-04-29T15:32:45;6.83;;;4.83;;
20122;SDS011;10222;50.848;4.336;2023-04-29T15:35:11;10.00;;;6.70;;
20122;SDS011;10222;50.848;4.336;2023-04-29T15:37:38;10.80;;;5.93;;
20122;SDS011;10222;50.848;4.336;2023-04-29T15:40:04;8.07;;;5.60;;
20122;SDS011;10222;50.848;4.336;2023-04-29T15:42:30;9.30;;;6.00;;
20122;SDS011;10222;50.848;4.336;2023-04-29T15:44:57;10.33;;;5.73;;
20122;SDS011;10222;50.848;4.336;2023-04-29T15:47:25;11.33;;;6.67;;
20122;SDS011;10222;50.848;4.336;2023-04-29T15:49:51;9.77;;;6.57;;
20122;SDS011;10222;50.848;4.336;2023-04-29T15:52:18;12.43;;;6.80;;
20122;SDS011;10222;50.848;4.336;2023-04-29T15:54:44;9.37;;;6.43;;
20122;SDS011;10222;50.848;4.336;2023-04-29T15:57:10;10.57;;;6.17;;
20122;SDS011;10222;50.848;4.336;2023-04-29T15:59:37;12.07;;;6.47;;
20122;SDS011;10222;50.848;4.336;2023-04-29T16:04:35;7.87;;;5.37;;
20122;SDS011;10222;50.848;4.336;2023-04-29T16:07:02;10.10;;;5.33;;
20122;SDS011;10222;50.848;4.336;2023-04-29T16:09:30;9.13;;;5.17;;